createdAt,value
2019-03-25T00:01:17.854Z,16.33
2019-03-25T00:03:46.202Z,17.23
2019-03-25T00:06:14.421Z,14.20
2019-03-25T00:08:42.414Z,16.40
2019-03-25T00:11:10.565Z,16.30
2019-03-25T00:13:38.639Z,13.10
2019-03-25T00:16:06.850Z,18.37
2019-03-25T00:18:34.830Z,16.87
2019-03-25T00:21:02.883Z,16.93
2019-03-25T00:23:30.865Z,15.87
2019-03-25T00:25:58.822Z,12.13
2019-03-25T00:28:26.880Z,13.90
2019-03-25T00:30:55.059Z,16.77
2019-03-25T00:33:23.148Z,16.33
2019-03-25T00:35:51.074Z,14.33
2019-03-25T00:38:19.069Z,16.17
2019-03-25T00:40:47.080Z,13.47
2019-03-25T00:43:15.065Z,14.27
2019-03-25T00:45:43.062Z,15.00
2019-03-25T00:48:10.985Z,13.60
2019-03-25T00:50:38.977Z,14.07
2019-03-25T00:53:07.026Z,14.53
2019-03-25T00:55:35.014Z,12.33
2019-03-25T00:58:03.054Z,13.57
2019-03-25T01:00:30.993Z,16.53
2019-03-25T01:02:58.990Z,18.87
2019-03-25T01:05:26.992Z,15.93
2019-03-25T01:07:54.987Z,15.57
2019-03-25T01:10:23.090Z,15.60
2019-03-25T01:12:51.118Z,14.27
2019-03-25T01:15:19.107Z,12.67
2019-03-25T01:17:47.113Z,15.20
2019-03-25T01:20:15.311Z,15.70
2019-03-25T01:22:43.421Z,14.67
2019-03-25T01:25:11.325Z,14.23
2019-03-25T01:27:39.309Z,17.87
2019-03-25T01:30:07.707Z,13.83
2019-03-25T01:32:35.752Z,12.90
2019-03-25T01:35:03.994Z,14.17
2019-03-25T01:37:31.991Z,12.90
2019-03-25T01:39:59.956Z,14.83
2019-03-25T01:42:28.014Z,12.07
2019-03-25T01:44:56.046Z,14.50
2019-03-25T01:47:24.014Z,13.17
2019-03-25T01:49:52.047Z,15.00
2019-03-25T01:52:20.101Z,16.37
2019-03-25T01:54:48.081Z,20.27
2019-03-25T01:57:16.086Z,16.70
2019-03-25T01:59:44.078Z,18.93
2019-03-25T02:02:12.095Z,19.63
2019-03-25T02:04:40.134Z,21.80
2019-03-25T02:07:08.151Z,21.23
2019-03-25T02:09:36.102Z,19.40
2019-03-25T02:12:04.227Z,19.37
2019-03-25T02:14:32.264Z,24.70
2019-03-25T02:17:00.265Z,20.57
2019-03-25T02:19:28.176Z,18.63
2019-03-25T02:21:56.166Z,20.73
2019-03-25T02:24:24.148Z,22.33
2019-03-25T02:26:52.079Z,22.63
2019-03-25T02:29:20.081Z,22.47
2019-03-25T02:31:48.110Z,21.30
2019-03-25T02:34:16.201Z,19.90
2019-03-25T02:36:44.213Z,22.77
2019-03-25T02:39:12.153Z,24.27
2019-03-25T02:41:40.132Z,23.60
2019-03-25T02:44:08.157Z,25.73
2019-03-25T02:46:36.187Z,26.77
2019-03-25T02:49:04.318Z,22.57
2019-03-25T02:51:32.291Z,24.60
2019-03-25T02:54:00.269Z,26.17
2019-03-25T02:56:28.285Z,30.10
2019-03-25T02:58:56.282Z,24.97
2019-03-25T03:01:24.252Z,24.37
2019-03-25T03:03:52.262Z,25.03
2019-03-25T03:06:20.248Z,28.63
2019-03-25T03:08:48.189Z,24.93
2019-03-25T03:11:16.172Z,24.60
2019-03-25T03:13:44.181Z,14.63
2019-03-25T03:16:12.250Z,24.10
2019-03-25T03:18:40.265Z,27.10
2019-03-25T03:21:08.227Z,16.27
2019-03-25T03:23:36.254Z,12.27
2019-03-25T03:26:04.479Z,12.17
2019-03-25T03:28:32.477Z,12.23
2019-03-25T03:31:00.595Z,10.73
2019-03-25T03:33:28.538Z,11.30
2019-03-25T03:35:56.737Z,13.47
2019-03-25T03:38:24.805Z,10.43
2019-03-25T03:40:52.838Z,13.20
2019-03-25T03:43:21.073Z,15.77
2019-03-25T03:45:49.093Z,15.17
2019-03-25T03:48:17.063Z,19.90
2019-03-25T03:50:45.137Z,21.50
2019-03-25T03:53:13.259Z,19.97
2019-03-25T03:55:41.280Z,18.73
2019-03-25T03:58:09.302Z,14.90
2019-03-25T04:00:37.384Z,19.40
2019-03-25T04:03:05.515Z,20.73
2019-03-25T04:05:33.562Z,22.87
2019-03-25T04:08:03.662Z,29.23
2019-03-25T04:10:40.484Z,20.57
2019-03-25T04:13:08.662Z,23.73
2019-03-25T04:15:36.722Z,21.60
2019-03-25T04:18:04.797Z,22.37
2019-03-25T04:20:32.879Z,23.93
2019-03-25T04:23:01.076Z,26.90
2019-03-25T04:25:29.130Z,19.00
2019-03-25T04:27:57.228Z,21.37
2019-03-25T04:30:25.478Z,26.33
2019-03-25T04:32:53.544Z,30.53
2019-03-25T04:35:23.869Z,24.70
2019-03-25T04:37:51.793Z,27.27
2019-03-25T04:40:19.934Z,26.03
2019-03-25T04:42:48.071Z,23.50
2019-03-25T04:45:16.475Z,21.90
2019-03-25T04:47:44.658Z,27.17
2019-03-25T04:50:12.919Z,25.50
2019-03-25T04:52:41.011Z,27.10
2019-03-25T04:55:09.594Z,27.07
2019-03-25T04:57:37.903Z,27.33
2019-03-25T05:00:07.575Z,30.57
2019-03-25T05:02:35.596Z,24.33
2019-03-25T05:05:03.855Z,39.53
2019-03-25T05:07:33.173Z,36.77
2019-03-25T05:10:01.238Z,38.13
2019-03-25T05:12:29.426Z,32.13
2019-03-25T05:14:57.491Z,31.43
2019-03-25T05:17:25.530Z,32.70
2019-03-25T05:19:53.592Z,35.80
2019-03-25T05:22:21.668Z,24.87
2019-03-25T05:24:49.769Z,28.13
2019-03-25T05:27:19.602Z,26.40
2019-03-25T05:29:48.294Z,30.87
2019-03-25T05:32:16.470Z,41.50
2019-03-25T05:34:44.596Z,30.47
2019-03-25T05:37:12.749Z,29.20
2019-03-25T05:39:40.852Z,18.70
2019-03-25T05:42:09.656Z,32.80
2019-03-25T05:44:37.761Z,34.03
2019-03-25T05:47:05.935Z,24.37
2019-03-25T05:49:33.992Z,37.43
2019-03-25T05:52:01.921Z,36.67
2019-03-25T05:54:29.991Z,37.60
2019-03-25T05:57:02.878Z,41.47
2019-03-25T05:59:27.997Z,33.83
2019-03-25T06:01:56.019Z,36.83
2019-03-25T06:04:24.073Z,37.97
2019-03-25T06:06:52.306Z,42.63
2019-03-25T06:09:20.464Z,39.77
2019-03-25T06:11:48.493Z,46.37
2019-03-25T06:14:16.570Z,48.87
2019-03-25T06:16:44.616Z,49.17
2019-03-25T06:19:12.820Z,56.63
2019-03-25T06:21:40.819Z,43.33
2019-03-25T06:24:08.881Z,41.27
2019-03-25T06:26:36.920Z,37.23
2019-03-25T06:29:05.021Z,38.57
2019-03-25T06:31:33.010Z,36.00
2019-03-25T06:34:01.031Z,38.43
2019-03-25T06:36:29.063Z,47.13
2019-03-25T06:38:57.158Z,47.10
2019-03-25T06:41:25.453Z,37.37
2019-03-25T06:43:54.601Z,32.40
2019-03-25T06:46:22.653Z,36.70
2019-03-25T06:48:50.811Z,26.63
2019-03-25T06:51:19.002Z,44.60
2019-03-25T06:53:52.441Z,30.53
2019-03-25T06:56:20.565Z,35.97
2019-03-25T06:58:48.648Z,28.63
2019-03-25T07:01:16.690Z,30.60
2019-03-25T07:03:44.783Z,34.70
2019-03-25T07:06:12.760Z,24.03
2019-03-25T07:08:40.929Z,29.93
2019-03-25T07:11:09.859Z,27.93
2019-03-25T07:13:37.893Z,29.30
2019-03-25T07:16:05.953Z,23.60
2019-03-25T07:18:33.964Z,26.10
2019-03-25T07:21:02.033Z,27.77
2019-03-25T07:23:30.181Z,25.63
2019-03-25T07:25:58.269Z,22.10
2019-03-25T07:28:26.324Z,28.27
2019-03-25T07:30:54.368Z,23.87
2019-03-25T07:33:22.742Z,22.97
2019-03-25T07:35:50.733Z,20.87
2019-03-25T07:38:18.831Z,21.50
2019-03-25T07:40:46.966Z,20.60
2019-03-25T07:43:15.186Z,20.07
2019-03-25T07:45:44.388Z,21.57
2019-03-25T07:48:12.456Z,21.73
2019-03-25T07:50:40.477Z,23.87
2019-03-25T07:53:08.586Z,26.27
2019-03-25T07:55:36.697Z,23.37
2019-03-25T07:58:04.819Z,20.33
2019-03-25T08:00:34.371Z,25.20
2019-03-25T08:03:02.648Z,21.23
2019-03-25T08:05:30.697Z,27.43
2019-03-25T08:07:59.217Z,19.80
2019-03-25T08:10:32.545Z,20.23
2019-03-25T08:13:00.708Z,24.60
2019-03-25T08:15:28.939Z,18.27
2019-03-25T08:17:56.955Z,18.57
2019-03-25T08:20:24.892Z,19.43
2019-03-25T08:22:52.952Z,17.80
2019-03-25T08:25:20.976Z,22.13
2019-03-25T08:27:59.381Z,24.80
2019-03-25T08:30:19.128Z,22.03
2019-03-25T08:32:47.333Z,23.07
2019-03-25T08:35:15.396Z,21.50
2019-03-25T08:37:43.457Z,20.07
2019-03-25T08:40:11.872Z,18.50
2019-03-25T08:42:40.166Z,20.80
2019-03-25T08:45:08.957Z,20.53
2019-03-25T08:47:36.962Z,19.47
2019-03-25T08:50:08.896Z,21.73
2019-03-25T08:52:36.961Z,16.40
2019-03-25T08:55:05.247Z,19.33
2019-03-25T08:57:33.357Z,19.30
2019-03-25T09:00:01.512Z,20.67
2019-03-25T09:02:29.543Z,20.43
2019-03-25T09:04:57.501Z,33.87
2019-03-25T09:07:25.518Z,18.93
2019-03-25T09:09:53.534Z,20.43
2019-03-25T09:12:21.582Z,21.53
2019-03-25T09:14:49.681Z,17.20
2019-03-25T09:17:17.732Z,21.47
2019-03-25T09:19:45.657Z,19.83
2019-03-25T09:22:13.797Z,16.57
2019-03-25T09:24:41.885Z,15.57
2019-03-25T09:27:10.059Z,15.50
2019-03-25T09:29:38.158Z,15.73
2019-03-25T09:32:06.370Z,19.30
2019-03-25T09:34:34.579Z,13.80
2019-03-25T09:37:02.673Z,16.27
2019-03-25T09:39:30.762Z,17.40
2019-03-25T09:41:59.295Z,13.00
2019-03-25T09:44:27.425Z,16.33
2019-03-25T09:46:55.781Z,16.07
2019-03-25T09:49:23.931Z,17.30
2019-03-25T09:51:52.977Z,17.60
2019-03-25T09:54:21.350Z,13.77
2019-03-25T09:56:49.424Z,15.77
2019-03-25T09:59:17.448Z,19.97
2019-03-25T10:01:45.896Z,20.33
2019-03-25T10:04:13.941Z,19.67
2019-03-25T10:06:44.099Z,25.67
2019-03-25T10:09:12.322Z,20.33
2019-03-25T10:11:40.391Z,17.43
2019-03-25T10:14:08.634Z,20.70
2019-03-25T10:16:37.195Z,20.57
2019-03-25T10:19:05.374Z,16.13
2019-03-25T10:21:33.916Z,17.77
2019-03-25T10:24:02.061Z,23.23
2019-03-25T10:26:30.230Z,21.70
2019-03-25T10:28:58.377Z,17.50
2019-03-25T10:31:26.690Z,15.50
2019-03-25T10:33:54.777Z,14.97
2019-03-25T10:36:22.982Z,21.80
2019-03-25T10:38:51.258Z,17.03
2019-03-25T10:41:19.412Z,18.40
2019-03-25T10:43:47.439Z,18.63
2019-03-25T10:46:15.688Z,18.37
2019-03-25T10:48:43.841Z,24.17
2019-03-25T10:51:11.993Z,19.43
2019-03-25T10:53:40.337Z,15.07
2019-03-25T10:56:08.607Z,15.50
2019-03-25T10:58:36.602Z,14.83
2019-03-25T11:01:05.370Z,11.97
2019-03-25T11:03:33.459Z,14.33
2019-03-25T11:06:01.446Z,16.97
2019-03-25T11:08:29.705Z,13.33
2019-03-25T11:10:58.204Z,14.73
2019-03-25T11:13:26.346Z,13.57
2019-03-25T11:15:54.431Z,17.77
2019-03-25T11:18:22.581Z,16.00
2019-03-25T11:20:50.865Z,13.77
2019-03-25T11:23:19.106Z,15.50
2019-03-25T11:25:47.775Z,13.33
2019-03-25T11:28:15.811Z,11.63
2019-03-25T11:30:51.846Z,13.80
2019-03-25T11:33:20.632Z,14.00
2019-03-25T11:35:48.794Z,13.67
2019-03-25T11:38:16.811Z,21.83
2019-03-25T11:40:44.970Z,11.50
2019-03-25T11:43:13.135Z,14.27
2019-03-25T11:45:41.244Z,14.47
2019-03-25T11:48:09.356Z,13.30
2019-03-25T11:50:37.358Z,11.23
2019-03-25T11:53:05.423Z,15.03
2019-03-25T11:55:33.878Z,15.50
2019-03-25T11:58:01.932Z,11.23
2019-03-25T12:00:30.415Z,12.87
2019-03-25T12:02:58.600Z,11.97
2019-03-25T12:05:26.663Z,14.57
2019-03-25T12:07:54.743Z,14.33
2019-03-25T12:10:23.094Z,12.60
2019-03-25T12:12:51.088Z,12.10
2019-03-25T12:15:19.112Z,12.77
2019-03-25T12:17:47.398Z,13.00
2019-03-25T12:20:15.560Z,13.00
2019-03-25T12:22:43.776Z,13.17
2019-03-25T12:25:11.928Z,15.33
2019-03-25T12:27:40.640Z,13.30
2019-03-25T12:30:09.460Z,13.77
2019-03-25T12:32:37.555Z,11.97
2019-03-25T12:35:06.357Z,11.13
2019-03-25T12:37:34.348Z,17.23
2019-03-25T12:40:02.454Z,11.10
2019-03-25T12:42:30.622Z,15.73
2019-03-25T12:44:58.841Z,14.20
2019-03-25T12:47:27.134Z,10.50
2019-03-25T12:49:56.443Z,11.73
2019-03-25T12:52:24.482Z,13.43
2019-03-25T12:54:52.477Z,12.77
2019-03-25T12:57:20.563Z,10.73
2019-03-25T12:59:48.655Z,11.83
2019-03-25T13:02:16.630Z,10.30
2019-03-25T13:04:44.652Z,10.73
2019-03-25T13:07:12.987Z,11.73
2019-03-25T13:09:41.429Z,11.27
2019-03-25T13:12:09.516Z,10.80
2019-03-25T13:14:37.613Z,11.43
2019-03-25T13:17:05.766Z,12.27
2019-03-25T13:19:33.852Z,11.00
2019-03-25T13:22:02.114Z,10.20
2019-03-25T13:24:30.341Z,9.07
2019-03-25T13:26:58.337Z,9.27
2019-03-25T13:29:26.487Z,10.20
2019-03-25T13:31:54.681Z,9.80
2019-03-25T13:34:22.692Z,11.27
2019-03-25T13:36:50.780Z,9.43
2019-03-25T13:39:18.847Z,11.73
2019-03-25T13:41:46.852Z,10.67
2019-03-25T13:44:14.878Z,14.83
2019-03-25T13:46:43.277Z,10.63
2019-03-25T13:49:11.566Z,13.37
2019-03-25T13:51:39.760Z,11.57
2019-03-25T13:54:07.943Z,10.60
2019-03-25T13:56:35.918Z,10.90
2019-03-25T13:59:04.072Z,9.57
2019-03-25T14:01:32.078Z,10.73
2019-03-25T14:04:00.111Z,9.07
2019-03-25T14:06:28.171Z,9.67
2019-03-25T14:08:56.272Z,13.37
2019-03-25T14:11:24.370Z,10.13
2019-03-25T14:13:52.474Z,14.53
2019-03-25T14:16:20.506Z,10.13
2019-03-25T14:18:48.541Z,12.70
2019-03-25T14:21:16.649Z,10.67
2019-03-25T14:23:44.667Z,14.47
2019-03-25T14:26:12.660Z,12.97
2019-03-25T14:28:40.759Z,11.90
2019-03-25T14:31:08.840Z,10.00
2019-03-25T14:33:36.834Z,9.77
2019-03-25T14:36:05.035Z,9.33
2019-03-25T14:38:33.204Z,7.83
2019-03-25T14:41:01.284Z,13.53
2019-03-25T14:43:29.329Z,10.37
2019-03-25T14:45:57.400Z,8.50
2019-03-25T14:48:25.408Z,10.13
2019-03-25T14:50:53.552Z,10.43
2019-03-25T14:53:21.623Z,10.73
2019-03-25T14:55:49.682Z,11.87
2019-03-25T14:58:17.754Z,10.47
2019-03-25T15:00:45.830Z,9.33
2019-03-25T15:03:13.842Z,12.80
2019-03-25T15:05:41.879Z,12.60
2019-03-25T15:08:09.943Z,10.87
2019-03-25T15:10:37.946Z,12.87
2019-03-25T15:13:06.051Z,10.00
2019-03-25T15:15:34.145Z,8.93
2019-03-25T15:18:02.366Z,8.77
2019-03-25T15:20:30.445Z,8.00
2019-03-25T15:22:58.495Z,7.97
2019-03-25T15:25:27.114Z,7.10
2019-03-25T15:27:55.188Z,8.47
2019-03-25T15:30:23.234Z,8.97
2019-03-25T15:32:51.266Z,7.97
2019-03-25T15:35:19.358Z,7.93
2019-03-25T15:37:47.426Z,11.07
2019-03-25T15:40:16.050Z,8.17
2019-03-25T15:42:44.113Z,6.37
2019-03-25T15:45:12.300Z,8.17
2019-03-25T15:47:43.786Z,9.23
2019-03-25T15:50:11.413Z,7.87
2019-03-25T15:52:39.597Z,9.53
2019-03-25T15:55:09.089Z,10.03
2019-03-25T15:57:39.556Z,10.50
2019-03-25T16:00:12.372Z,12.53
2019-03-25T16:02:40.638Z,13.87
2019-03-25T16:05:08.811Z,12.73
2019-03-25T16:07:36.848Z,9.43
2019-03-25T16:10:05.618Z,10.17
2019-03-25T16:12:33.717Z,10.87
2019-03-25T16:15:01.931Z,9.40
2019-03-25T16:17:29.987Z,12.37
2019-03-25T16:19:58.039Z,12.10
2019-03-25T16:22:26.092Z,17.83
2019-03-25T16:24:54.161Z,14.67
2019-03-25T16:27:22.274Z,18.73
2019-03-25T16:29:50.330Z,16.87
2019-03-25T16:32:18.401Z,17.93
2019-03-25T16:34:46.748Z,18.07
2019-03-25T16:37:14.716Z,17.60
2019-03-25T16:39:42.719Z,16.20
2019-03-25T16:42:16.896Z,10.07
2019-03-25T16:44:45.034Z,19.90
2019-03-25T16:47:14.475Z,14.73
2019-03-25T16:49:42.528Z,16.63
2019-03-25T16:52:10.559Z,17.37
2019-03-25T16:54:40.525Z,13.63
2019-03-25T16:57:08.612Z,12.77
2019-03-25T16:59:36.733Z,13.27
2019-03-25T17:02:04.831Z,13.43
2019-03-25T17:04:32.904Z,17.33
2019-03-25T17:07:00.900Z,13.53
2019-03-25T17:09:28.906Z,18.33
2019-03-25T17:11:57.035Z,17.93
2019-03-25T17:14:25.590Z,20.67
2019-03-25T17:16:53.634Z,31.53
2019-03-25T17:19:21.658Z,22.27
2019-03-25T17:21:57.615Z,17.27
2019-03-25T17:24:19.615Z,19.43
2019-03-25T17:26:47.720Z,15.83
2019-03-25T17:29:15.756Z,17.73
2019-03-25T17:31:43.827Z,15.10
2019-03-25T17:34:11.900Z,14.70
2019-03-25T17:36:40.031Z,16.20
2019-03-25T17:39:09.357Z,16.37
2019-03-25T17:41:37.464Z,18.77
2019-03-25T17:44:05.486Z,23.47
2019-03-25T17:46:33.636Z,17.03
2019-03-25T17:49:01.668Z,17.57
2019-03-25T17:51:29.680Z,20.03
2019-03-25T17:53:57.866Z,20.17
2019-03-25T17:56:26.025Z,21.17
2019-03-25T17:58:54.499Z,37.57
2019-03-25T18:01:32.550Z,52.93
2019-03-25T18:03:59.599Z,51.03
2019-03-25T18:06:27.734Z,48.77
2019-03-25T18:08:56.706Z,56.00
2019-03-25T18:11:24.803Z,40.07
2019-03-25T18:13:53.828Z,45.57
2019-03-25T18:16:22.255Z,44.20
2019-03-25T18:18:50.404Z,35.43
2019-03-25T18:21:18.605Z,39.90
2019-03-25T18:23:46.641Z,29.63
2019-03-25T18:26:15.220Z,30.70
2019-03-25T18:28:43.391Z,34.03
2019-03-25T18:31:11.433Z,35.00
2019-03-25T18:33:39.455Z,22.00
2019-03-25T18:36:07.564Z,22.93
2019-03-25T18:38:35.635Z,23.60
2019-03-25T18:41:03.669Z,20.27
2019-03-25T18:43:31.722Z,18.73
2019-03-25T18:45:59.856Z,18.63
2019-03-25T18:48:28.584Z,17.83
2019-03-25T18:50:56.589Z,18.27
2019-03-25T18:53:24.927Z,17.67
2019-03-25T18:55:53.383Z,23.70
2019-03-25T18:58:21.581Z,21.67
2019-03-25T19:00:49.657Z,22.47
2019-03-25T19:03:18.559Z,25.90
2019-03-25T19:05:47.123Z,28.83
2019-03-25T19:08:15.357Z,32.97
2019-03-25T19:10:45.335Z,29.40
2019-03-25T19:13:13.334Z,32.83
2019-03-25T19:15:41.556Z,39.33
2019-03-25T19:18:10.034Z,37.70
2019-03-25T19:20:38.314Z,41.57
2019-03-25T19:23:06.649Z,44.67
2019-03-25T19:25:37.191Z,38.83
2019-03-25T19:28:05.630Z,37.77
2019-03-25T19:30:34.032Z,42.40
2019-03-25T19:33:02.093Z,52.37
2019-03-25T19:35:30.405Z,42.97
2019-03-25T19:37:58.580Z,35.17
2019-03-25T19:40:26.811Z,39.33
2019-03-25T19:42:54.959Z,38.30
2019-03-25T19:45:23.459Z,26.03
2019-03-25T19:47:52.354Z,27.43
2019-03-25T19:50:20.877Z,19.73
2019-03-25T19:52:49.240Z,20.13
2019-03-25T19:55:17.235Z,18.77
2019-03-25T19:57:45.433Z,20.53
2019-03-25T20:00:13.915Z,17.90
2019-03-25T20:02:41.987Z,15.03
2019-03-25T20:05:10.258Z,14.90
2019-03-25T20:07:38.827Z,17.63
2019-03-25T20:10:09.260Z,16.20
2019-03-25T20:12:38.426Z,15.43
2019-03-25T20:15:07.070Z,16.63
2019-03-25T20:17:35.379Z,14.97
2019-03-25T20:20:04.209Z,20.03
2019-03-25T20:22:32.496Z,16.73
2019-03-25T20:25:01.227Z,20.80
2019-03-25T20:27:29.412Z,15.73
2019-03-25T20:29:58.248Z,20.20
2019-03-25T20:32:31.633Z,34.23
2019-03-25T20:34:56.454Z,26.47
2019-03-25T20:37:24.896Z,27.70
2019-03-25T20:39:52.887Z,24.63
2019-03-25T20:42:21.022Z,21.50
2019-03-25T20:44:49.074Z,27.10
2019-03-25T20:47:17.376Z,20.17
2019-03-25T20:49:45.478Z,21.83
2019-03-25T20:52:13.530Z,23.07
2019-03-25T20:54:41.951Z,19.03
2019-03-25T20:57:10.014Z,16.73
2019-03-25T20:59:39.740Z,18.47
2019-03-25T21:02:07.943Z,14.10
2019-03-25T21:04:36.148Z,18.10
2019-03-25T21:07:05.210Z,21.17
2019-03-25T21:09:33.295Z,17.33
2019-03-25T21:12:01.392Z,15.33
2019-03-25T21:14:29.721Z,15.60
2019-03-25T21:16:57.980Z,16.70
2019-03-25T21:19:26.139Z,14.57
2019-03-25T21:21:54.288Z,15.03
2019-03-25T21:24:22.370Z,15.83
2019-03-25T21:26:50.891Z,18.37
2019-03-25T21:29:18.925Z,21.10
2019-03-25T21:31:47.013Z,17.70
2019-03-25T21:34:15.016Z,19.33
2019-03-25T21:36:43.132Z,21.40
2019-03-25T21:39:11.279Z,19.23
2019-03-25T21:41:39.404Z,19.37
2019-03-25T21:44:07.732Z,16.00
2019-03-25T21:46:35.798Z,14.13
2019-03-25T21:49:04.040Z,13.27
2019-03-25T21:51:32.239Z,18.60
2019-03-25T21:54:00.295Z,10.47
2019-03-25T21:56:28.551Z,11.90
2019-03-25T21:58:56.588Z,13.53
2019-03-25T22:01:24.957Z,9.37
2019-03-25T22:03:53.195Z,10.80
2019-03-25T22:06:21.385Z,16.63
2019-03-25T22:08:49.509Z,14.83
2019-03-25T22:11:17.533Z,13.13
2019-03-25T22:13:45.515Z,13.07
2019-03-25T22:16:13.703Z,10.57
2019-03-25T22:18:41.912Z,16.00
2019-03-25T22:21:09.940Z,9.07
2019-03-25T22:23:38.014Z,11.13
2019-03-25T22:26:05.938Z,8.77
2019-03-25T22:28:33.946Z,9.40
2019-03-25T22:31:01.976Z,11.00
2019-03-25T22:33:30.038Z,8.53
2019-03-25T22:35:57.978Z,9.63
2019-03-25T22:38:26.014Z,8.00
2019-03-25T22:40:54.016Z,12.00
2019-03-25T22:43:21.966Z,8.97
2019-03-25T22:45:49.977Z,9.17
2019-03-25T22:48:18.082Z,8.30
2019-03-25T22:50:46.178Z,12.33
2019-03-25T22:53:14.125Z,12.37
2019-03-25T22:55:42.172Z,13.53
2019-03-25T22:58:10.193Z,10.97
2019-03-25T23:00:43.875Z,13.77
2019-03-25T23:03:12.047Z,19.73
2019-03-25T23:05:40.172Z,13.23
2019-03-25T23:08:08.173Z,12.80
2019-03-25T23:10:36.267Z,13.47
2019-03-25T23:13:04.333Z,11.87
2019-03-25T23:15:32.464Z,10.47
2019-03-25T23:18:00.547Z,12.70
2019-03-25T23:20:28.771Z,16.60
2019-03-25T23:22:56.871Z,12.00
2019-03-25T23:25:24.956Z,10.23
2019-03-25T23:27:55.497Z,11.60
2019-03-25T23:30:23.728Z,13.10
2019-03-25T23:32:51.707Z,9.13
2019-03-25T23:35:19.754Z,9.47
2019-03-25T23:37:48.155Z,10.30
2019-03-25T23:40:16.220Z,13.30
2019-03-25T23:42:44.359Z,11.40
2019-03-25T23:45:12.739Z,9.90
2019-03-25T23:47:40.760Z,11.33
2019-03-25T23:50:09.011Z,11.10
2019-03-25T23:52:37.049Z,12.50
2019-03-25T23:55:06.058Z,13.40
2019-03-25T23:57:34.135Z,13.20
